sensor_id;sensor_type;location;lat;lon;timestamp;P1;durP1;ratioP1;P2;durP2;ratioP2
7316;SDS011;3699;51.462;6.696;2023-03-13T00:01:25;20.90;;;6.20;;
7316;SDS011;3699;51.462;6.696;2023-03-13T00:03:54;17.87;;;4.47;;
7316;SDS011;3699;51.462;6.696;2023-03-13T00:06:21;16.87;;;4.27;;
7316;SDS011;3699;51.462;6.696;2023-03-13T00:08:52;14.40;;;4.80;;
7316;SDS011;3699;51.462;6.696;2023-03-13T00:11:19;14.53;;;3.93;;
7316;SDS011;3699;51.462;6.696;2023-03-13T00:13:46;14.60;;;4.70;;
7316;SDS011;3699;51.462;6.696;2023-03-13T00:16:13;16.50;;;4.20;;
7316;SDS011;3699;51.462;6.696;2023-03-13T00:18:43;15.13;;;3.73;;
7316;SDS011;3699;51.462;6.696;2023-03-13T00:21:11;17.43;;;4.77;;
7316;SDS011;3699;51.462;6.696;2023-03-13T00:23:38;10.10;;;3.73;;
7316;SDS011;3699;51.462;6.696;2023-03-13T00:26:07;22.83;;;5.03;;
7316;SDS011;3699;51.462;6.696;2023-03-13T00:28:35;13.77;;;4.20;;
7316;SDS011;3699;51.462;6.696;2023-03-13T00:31:04;18.13;;;5.40;;
7316;SDS011;3699;51.462;6.696;2023-03-13T00:33:32;16.73;;;4.93;;
7316;SDS011;3699;51.462;6.696;2023-03-13T00:35:59;20.43;;;4.60;;
7316;SDS011;3699;51.462;6.696;2023-03-13T00:38:26;15.70;;;4.83;;
7316;SDS011;3699;51.462;6.696;2023-03-13T00:41:00;17.07;;;4.47;;
7316;SDS011;3699;51.462;6.696;2023-03-13T00:43:29;19.90;;;5.33;;
7316;SDS011;3699;51.462;6.696;2023-03-13T00:45:55;21.03;;;6.10;;
7316;SDS011;3699;51.462;6.696;2023-03-13T00:48:22;19.63;;;4.33;;
7316;SDS011;3699;51.462;6.696;2023-03-13T00:50:50;16.03;;;3.77;;
7316;SDS011;3699;51.462;6.696;2023-03-13T00:53:17;15.40;;;3.60;;
7316;SDS011;3699;51.462;6.696;2023-03-13T00:55:51;13.37;;;3.90;;
7316;SDS011;3699;51.462;6.696;2023-03-13T00:58:18;21.73;;;4.93;;
7316;SDS011;3699;51.462;6.696;2023-03-13T01:00:46;13.73;;;3.87;;
7316;SDS011;3699;51.462;6.696;2023-03-13T01:03:13;18.30;;;3.67;;
7316;SDS011;3699;51.462;6.696;2023-03-13T01:05:40;11.57;;;4.13;;
7316;SDS011;3699;51.462;6.696;2023-03-13T01:08:07;21.60;;;4.30;;
7316;SDS011;3699;51.462;6.696;2023-03-13T01:10:34;27.53;;;5.87;;
7316;SDS011;3699;51.462;6.696;2023-03-13T01:13:00;17.70;;;3.97;;
7316;SDS011;3699;51.462;6.696;2023-03-13T01:15:28;19.40;;;5.53;;
7316;SDS011;3699;51.462;6.696;2023-03-13T01:17:56;15.60;;;5.03;;
7316;SDS011;3699;51.462;6.696;2023-03-13T01:20:23;20.90;;;4.23;;
7316;SDS011;3699;51.462;6.696;2023-03-13T01:22:50;13.97;;;3.30;;
7316;SDS011;3699;51.462;6.696;2023-03-13T01:25:17;17.80;;;3.97;;
7316;SDS011;3699;51.462;6.696;2023-03-13T01:27:43;21.27;;;5.17;;
7316;SDS011;3699;51.462;6.696;2023-03-13T01:30:10;13.17;;;3.70;;
7316;SDS011;3699;51.462;6.696;2023-03-13T01:32:37;18.47;;;3.90;;
7316;SDS011;3699;51.462;6.696;2023-03-13T01:35:06;22.77;;;5.27;;
7316;SDS011;3699;51.462;6.696;2023-03-13T01:37:33;16.43;;;4.13;;
7316;SDS011;3699;51.462;6.696;2023-03-13T01:40:00;20.67;;;4.47;;
7316;SDS011;3699;51.462;6.696;2023-03-13T01:42:27;17.00;;;4.10;;
7316;SDS011;3699;51.462;6.696;2023-03-13T01:44:55;18.33;;;4.50;;
7316;SDS011;3699;51.462;6.696;2023-03-13T01:47:22;18.53;;;4.10;;
7316;SDS011;3699;51.462;6.696;2023-03-13T01:49:49;21.57;;;4.93;;
7316;SDS011;3699;51.462;6.696;2023-03-13T01:52:20;18.93;;;5.10;;
7316;SDS011;3699;51.462;6.696;2023-03-13T01:54:52;22.93;;;4.73;;
7316;SDS011;3699;51.462;6.696;2023-03-13T01:57:24;17.33;;;5.60;;
7316;SDS011;3699;51.462;6.696;2023-03-13T01:59:55;16.40;;;4.90;;
7316;SDS011;3699;51.462;6.696;2023-03-13T02:02:26;23.20;;;4.33;;
7316;SDS011;3699;51.462;6.696;2023-03-13T02:04:54;21.23;;;5.03;;
7316;SDS011;3699;51.462;6.696;2023-03-13T02:07:26;29.20;;;6.33;;
7316;SDS011;3699;51.462;6.696;2023-03-13T02:09:58;24.53;;;5.20;;
7316;SDS011;3699;51.462;6.696;2023-03-13T02:12:26;17.03;;;4.63;;
7316;SDS011;3699;51.462;6.696;2023-03-13T02:14:56;17.67;;;5.13;;
7316;SDS011;3699;51.462;6.696;2023-03-13T02:17:26;9.80;;;4.60;;
7316;SDS011;3699;51.462;6.696;2023-03-13T02:19:54;16.57;;;5.07;;
7316;SDS011;3699;51.462;6.696;2023-03-13T02:22:23;16.77;;;4.20;;
7316;SDS011;3699;51.462;6.696;2023-03-13T02:24:57;12.87;;;5.40;;
7316;SDS011;3699;51.462;6.696;2023-03-13T02:27:32;18.17;;;4.43;;
7316;SDS011;3699;51.462;6.696;2023-03-13T02:29:59;12.80;;;4.43;;
7316;SDS011;3699;51.462;6.696;2023-03-13T02:32:26;11.77;;;3.70;;
7316;SDS011;3699;51.462;6.696;2023-03-13T02:34:55;17.03;;;5.13;;
7316;SDS011;3699;51.462;6.696;2023-03-13T02:37:24;14.03;;;5.07;;
7316;SDS011;3699;51.462;6.696;2023-03-13T02:39:53;14.83;;;5.00;;
7316;SDS011;3699;51.462;6.696;2023-03-13T02:42:22;16.17;;;4.83;;
7316;SDS011;3699;51.462;6.696;2023-03-13T02:44:51;14.90;;;4.77;;
7316;SDS011;3699;51.462;6.696;2023-03-13T02:47:18;10.47;;;4.50;;
7316;SDS011;3699;51.462;6.696;2023-03-13T02:49:45;13.60;;;4.53;;
7316;SDS011;3699;51.462;6.696;2023-03-13T02:52:13;11.80;;;4.60;;
7316;SDS011;3699;51.462;6.696;2023-03-13T02:54:43;17.20;;;5.47;;
7316;SDS011;3699;51.462;6.696;2023-03-13T02:57:12;11.97;;;3.87;;
7316;SDS011;3699;51.462;6.696;2023-03-13T02:59:39;14.93;;;4.00;;
7316;SDS011;3699;51.462;6.696;2023-03-13T03:02:07;12.47;;;3.90;;
7316;SDS011;3699;51.462;6.696;2023-03-13T03:04:34;9.43;;;3.20;;
7316;SDS011;3699;51.462;6.696;2023-03-13T03:07:01;11.97;;;4.17;;
7316;SDS011;3699;51.462;6.696;2023-03-13T03:09:27;7.50;;;3.03;;
7316;SDS011;3699;51.462;6.696;2023-03-13T03:11:54;10.67;;;3.20;;
7316;SDS011;3699;51.462;6.696;2023-03-13T03:14:21;13.40;;;2.93;;
7316;SDS011;3699;51.462;6.696;2023-03-13T03:16:48;9.30;;;3.23;;
7316;SDS011;3699;51.462;6.696;2023-03-13T03:19:16;10.40;;;2.80;;
7316;SDS011;3699;51.462;6.696;2023-03-13T03:21:42;5.57;;;2.70;;
7316;SDS011;3699;51.462;6.696;2023-03-13T03:24:09;13.97;;;3.63;;
7316;SDS011;3699;51.462;6.696;2023-03-13T03:26:36;7.37;;;2.57;;
7316;SDS011;3699;51.462;6.696;2023-03-13T03:29:03;7.57;;;2.50;;
7316;SDS011;3699;51.462;6.696;2023-03-13T03:31:30;6.23;;;3.07;;
7316;SDS011;3699;51.462;6.696;2023-03-13T03:33:56;8.57;;;4.20;;
7316;SDS011;3699;51.462;6.696;2023-03-13T03:36:24;5.00;;;2.60;;
7316;SDS011;3699;51.462;6.696;2023-03-13T03:38:51;7.33;;;2.53;;
7316;SDS011;3699;51.462;6.696;2023-03-13T03:41:18;7.73;;;2.83;;
7316;SDS011;3699;51.462;6.696;2023-03-13T03:43:45;11.33;;;3.10;;
7316;SDS011;3699;51.462;6.696;2023-03-13T03:46:13;3.37;;;2.40;;
7316;SDS011;3699;51.462;6.696;2023-03-13T03:48:39;9.10;;;2.83;;
7316;SDS011;3699;51.462;6.696;2023-03-13T03:51:06;10.37;;;3.23;;
7316;SDS011;3699;51.462;6.696;2023-03-13T03:53:34;5.17;;;3.27;;
7316;SDS011;3699;51.462;6.696;2023-03-13T03:56:01;6.60;;;2.83;;
7316;SDS011;3699;51.462;6.696;2023-03-13T03:58:28;4.37;;;2.67;;
7316;SDS011;3699;51.462;6.696;2023-03-13T04:00:55;5.50;;;3.07;;
7316;SDS011;3699;51.462;6.696;2023-03-13T04:03:23;7.57;;;2.80;;
7316;SDS011;3699;51.462;6.696;2023-03-13T04:05:50;2.90;;;2.60;;
7316;SDS011;3699;51.462;6.696;2023-03-13T04:08:16;4.93;;;3.13;;
7316;SDS011;3699;51.462;6.696;2023-03-13T04:10:45;4.37;;;2.83;;
7316;SDS011;3699;51.462;6.696;2023-03-13T04:13:11;6.53;;;3.30;;
7316;SDS011;3699;51.462;6.696;2023-03-13T04:15:38;3.53;;;2.73;;
7316;SDS011;3699;51.462;6.696;2023-03-13T04:18:05;4.13;;;3.00;;
7316;SDS011;3699;51.462;6.696;2023-03-13T04:20:32;7.70;;;3.10;;
7316;SDS011;3699;51.462;6.696;2023-03-13T04:22:58;4.33;;;2.90;;
7316;SDS011;3699;51.462;6.696;2023-03-13T04:25:25;5.83;;;2.77;;
7316;SDS011;3699;51.462;6.696;2023-03-13T04:27:53;4.57;;;3.00;;
7316;SDS011;3699;51.462;6.696;2023-03-13T04:30:20;6.67;;;3.10;;
7316;SDS011;3699;51.462;6.696;2023-03-13T04:32:47;5.87;;;2.57;;
7316;SDS011;3699;51.462;6.696;2023-03-13T04:35:15;3.23;;;2.67;;
7316;SDS011;3699;51.462;6.696;2023-03-13T04:37:41;3.90;;;3.27;;
7316;SDS011;3699;51.462;6.696;2023-03-13T04:40:09;4.13;;;2.97;;
7316;SDS011;3699;51.462;6.696;2023-03-13T04:42:37;4.97;;;2.90;;
7316;SDS011;3699;51.462;6.696;2023-03-13T04:45:06;3.73;;;3.00;;
7316;SDS011;3699;51.462;6.696;2023-03-13T04:47:35;4.77;;;3.27;;
7316;SDS011;3699;51.462;6.696;2023-03-13T04:50:02;3.50;;;3.20;;
7316;SDS011;3699;51.462;6.696;2023-03-13T04:52:29;6.17;;;3.23;;
7316;SDS011;3699;51.462;6.696;2023-03-13T04:54:56;3.30;;;3.00;;
7316;SDS011;3699;51.462;6.696;2023-03-13T04:57:23;3.50;;;3.20;;
7316;SDS011;3699;51.462;6.696;2023-03-13T04:59:49;4.20;;;3.40;;
7316;SDS011;3699;51.462;6.696;2023-03-13T05:02:18;5.77;;;3.17;;
7316;SDS011;3699;51.462;6.696;2023-03-13T05:04:44;6.00;;;3.57;;
7316;SDS011;3699;51.462;6.696;2023-03-13T05:07:11;3.80;;;3.17;;
7316;SDS011;3699;51.462;6.696;2023-03-13T05:09:38;4.33;;;3.93;;
7316;SDS011;3699;51.462;6.696;2023-03-13T05:12:05;4.57;;;3.30;;
7316;SDS011;3699;51.462;6.696;2023-03-13T05:14:32;7.23;;;3.60;;
7316;SDS011;3699;51.462;6.696;2023-03-13T05:16:58;4.17;;;3.70;;
7316;SDS011;3699;51.462;6.696;2023-03-13T05:19:26;4.10;;;3.40;;
7316;SDS011;3699;51.462;6.696;2023-03-13T05:21:53;4.33;;;3.47;;
7316;SDS011;3699;51.462;6.696;2023-03-13T05:24:20;5.50;;;4.17;;
7316;SDS011;3699;51.462;6.696;2023-03-13T05:26:47;4.53;;;4.03;;
7316;SDS011;3699;51.462;6.696;2023-03-13T05:29:13;4.20;;;3.53;;
7316;SDS011;3699;51.462;6.696;2023-03-13T05:31:40;4.20;;;3.80;;
7316;SDS011;3699;51.462;6.696;2023-03-13T05:34:07;5.90;;;3.67;;
7316;SDS011;3699;51.462;6.696;2023-03-13T05:36:35;4.30;;;3.90;;
7316;SDS011;3699;51.462;6.696;2023-03-13T05:39:01;4.30;;;3.60;;
7316;SDS011;3699;51.462;6.696;2023-03-13T05:41:28;5.17;;;3.97;;
7316;SDS011;3699;51.462;6.696;2023-03-13T05:43:55;4.23;;;3.83;;
7316;SDS011;3699;51.462;6.696;2023-03-13T05:46:22;5.87;;;3.90;;
7316;SDS011;3699;51.462;6.696;2023-03-13T05:48:48;4.90;;;3.80;;
7316;SDS011;3699;51.462;6.696;2023-03-13T05:51:16;4.83;;;3.63;;
7316;SDS011;3699;51.462;6.696;2023-03-13T05:53:44;4.30;;;3.47;;
7316;SDS011;3699;51.462;6.696;2023-03-13T05:56:11;5.57;;;3.63;;
7316;SDS011;3699;51.462;6.696;2023-03-13T05:58:38;3.77;;;3.47;;
7316;SDS011;3699;51.462;6.696;2023-03-13T06:01:05;4.50;;;3.50;;
7316;SDS011;3699;51.462;6.696;2023-03-13T06:03:33;5.80;;;3.50;;
7316;SDS011;3699;51.462;6.696;2023-03-13T06:05:59;5.67;;;3.50;;
7316;SDS011;3699;51.462;6.696;2023-03-13T06:08:27;3.87;;;3.43;;
7316;SDS011;3699;51.462;6.696;2023-03-13T06:10:55;4.63;;;3.60;;
7316;SDS011;3699;51.462;6.696;2023-03-13T06:13:24;5.23;;;3.87;;
7316;SDS011;3699;51.462;6.696;2023-03-13T06:15:51;4.70;;;3.77;;
7316;SDS011;3699;51.462;6.696;2023-03-13T06:18:18;3.23;;;2.93;;
7316;SDS011;3699;51.462;6.696;2023-03-13T06:20:44;7.00;;;3.97;;
7316;SDS011;3699;51.462;6.696;2023-03-13T06:23:11;5.43;;;3.40;;
7316;SDS011;3699;51.462;6.696;2023-03-13T06:25:38;9.53;;;3.63;;
7316;SDS011;3699;51.462;6.696;2023-03-13T06:28:06;7.97;;;3.70;;
7316;SDS011;3699;51.462;6.696;2023-03-13T06:30:33;4.43;;;3.30;;
7316;SDS011;3699;51.462;6.696;2023-03-13T06:33:00;5.30;;;3.30;;
7316;SDS011;3699;51.462;6.696;2023-03-13T06:35:26;6.23;;;3.27;;
7316;SDS011;3699;51.462;6.696;2023-03-13T06:37:53;4.20;;;3.30;;
7316;SDS011;3699;51.462;6.696;2023-03-13T06:40:20;5.13;;;3.70;;
7316;SDS011;3699;51.462;6.696;2023-03-13T06:42:47;6.80;;;3.73;;
7316;SDS011;3699;51.462;6.696;2023-03-13T06:45:15;4.67;;;3.47;;
7316;SDS011;3699;51.462;6.696;2023-03-13T06:47:42;6.17;;;4.37;;
7316;SDS011;3699;51.462;6.696;2023-03-13T06:50:10;4.03;;;3.70;;
7316;SDS011;3699;51.462;6.696;2023-03-13T06:52:37;7.60;;;3.30;;
7316;SDS011;3699;51.462;6.696;2023-03-13T06:55:04;4.47;;;3.40;;
7316;SDS011;3699;51.462;6.696;2023-03-13T06:57:32;7.37;;;3.50;;
7316;SDS011;3699;51.462;6.696;2023-03-13T06:59:59;6.23;;;4.20;;
7316;SDS011;3699;51.462;6.696;2023-03-13T07:02:27;5.43;;;3.03;;
7316;SDS011;3699;51.462;6.696;2023-03-13T07:04:54;6.90;;;4.20;;
7316;SDS011;3699;51.462;6.696;2023-03-13T07:07:20;6.10;;;3.70;;
7316;SDS011;3699;51.462;6.696;2023-03-13T07:09:47;5.83;;;2.90;;
7316;SDS011;3699;51.462;6.696;2023-03-13T07:12:14;7.13;;;3.23;;
7316;SDS011;3699;51.462;6.696;2023-03-13T07:14:41;4.47;;;3.00;;
7316;SDS011;3699;51.462;6.696;2023-03-13T07:17:10;3.80;;;2.70;;
7316;SDS011;3699;51.462;6.696;2023-03-13T07:19:38;11.03;;;4.43;;
7316;SDS011;3699;51.462;6.696;2023-03-13T07:22:04;6.90;;;3.23;;
7316;SDS011;3699;51.462;6.696;2023-03-13T07:24:31;7.97;;;3.80;;
7316;SDS011;3699;51.462;6.696;2023-03-13T07:26:58;6.47;;;3.33;;
7316;SDS011;3699;51.462;6.696;2023-03-13T07:29:25;7.13;;;3.33;;
7316;SDS011;3699;51.462;6.696;2023-03-13T07:31:51;5.43;;;3.00;;
7316;SDS011;3699;51.462;6.696;2023-03-13T07:34:18;6.13;;;2.63;;
7316;SDS011;3699;51.462;6.696;2023-03-13T07:36:46;5.50;;;2.80;;
7316;SDS011;3699;51.462;6.696;2023-03-13T07:39:13;4.40;;;2.67;;
7316;SDS011;3699;51.462;6.696;2023-03-13T07:41:40;5.90;;;3.23;;
7316;SDS011;3699;51.462;6.696;2023-03-13T07:44:07;9.00;;;3.30;;
7316;SDS011;3699;51.462;6.696;2023-03-13T07:46:34;7.83;;;3.10;;
7316;SDS011;3699;51.462;6.696;2023-03-13T07:49:00;8.57;;;3.33;;
7316;SDS011;3699;51.462;6.696;2023-03-13T07:51:27;8.13;;;2.90;;
7316;SDS011;3699;51.462;6.696;2023-03-13T07:53:55;7.07;;;3.30;;
7316;SDS011;3699;51.462;6.696;2023-03-13T07:56:22;6.53;;;2.90;;
7316;SDS011;3699;51.462;6.696;2023-03-13T07:58:49;4.57;;;3.10;;
7316;SDS011;3699;51.462;6.696;2023-03-13T08:01:17;8.97;;;3.23;;
7316;SDS011;3699;51.462;6.696;2023-03-13T08:03:45;6.10;;;2.70;;
7316;SDS011;3699;51.462;6.696;2023-03-13T08:06:15;4.63;;;3.00;;
7316;SDS011;3699;51.462;6.696;2023-03-13T08:08:42;5.47;;;3.10;;
7316;SDS011;3699;51.462;6.696;2023-03-13T08:11:11;7.50;;;3.33;;
7316;SDS011;3699;51.462;6.696;2023-03-13T08:13:39;4.13;;;3.10;;
7316;SDS011;3699;51.462;6.696;2023-03-13T08:16:07;6.67;;;3.17;;
7316;SDS011;3699;51.462;6.696;2023-03-13T08:18:35;9.23;;;3.40;;
7316;SDS011;3699;51.462;6.696;2023-03-13T08:21:03;9.27;;;3.17;;
7316;SDS011;3699;51.462;6.696;2023-03-13T08:23:32;8.47;;;3.40;;
7316;SDS011;3699;51.462;6.696;2023-03-13T08:26:03;8.90;;;3.60;;
7316;SDS011;3699;51.462;6.696;2023-03-13T08:28:32;7.63;;;3.33;;
7316;SDS011;3699;51.462;6.696;2023-03-13T08:31:05;7.07;;;3.30;;
7316;SDS011;3699;51.462;6.696;2023-03-13T08:33:32;7.33;;;3.33;;
7316;SDS011;3699;51.462;6.696;2023-03-13T08:36:06;11.90;;;4.40;;
7316;SDS011;3699;51.462;6.696;2023-03-13T08:38:35;9.37;;;3.50;;
7316;SDS011;3699;51.462;6.696;2023-03-13T08:41:02;8.90;;;3.10;;
7316;SDS011;3699;51.462;6.696;2023-03-13T08:43:29;8.33;;;4.10;;
7316;SDS011;3699;51.462;6.696;2023-03-13T08:45:57;8.20;;;3.27;;
7316;SDS011;3699;51.462;6.696;2023-03-13T08:48:24;8.03;;;3.47;;
7316;SDS011;3699;51.462;6.696;2023-03-13T08:50:58;10.20;;;3.00;;
7316;SDS011;3699;51.462;6.696;2023-03-13T08:53:26;5.23;;;2.90;;
7316;SDS011;3699;51.462;6.696;2023-03-13T08:55:53;13.27;;;3.50;;
7316;SDS011;3699;51.462;6.696;2023-03-13T08:58:20;5.37;;;3.10;;
7316;SDS011;3699;51.462;6.696;2023-03-13T09:00:47;5.70;;;3.00;;
7316;SDS011;3699;51.462;6.696;2023-03-13T09:03:15;7.57;;;3.50;;
7316;SDS011;3699;51.462;6.696;2023-03-13T09:05:42;3.50;;;2.67;;
7316;SDS011;3699;51.462;6.696;2023-03-13T09:08:10;6.03;;;3.43;;
7316;SDS011;3699;51.462;6.696;2023-03-13T09:10:36;7.97;;;3.17;;
7316;SDS011;3699;51.462;6.696;2023-03-13T09:13:03;5.50;;;2.63;;
7316;SDS011;3699;51.462;6.696;2023-03-13T09:15:30;8.03;;;2.87;;
7316;SDS011;3699;51.462;6.696;2023-03-13T09:17:57;9.13;;;3.10;;
7316;SDS011;3699;51.462;6.696;2023-03-13T09:20:25;7.90;;;3.07;;
7316;SDS011;3699;51.462;6.696;2023-03-13T09:22:51;5.03;;;2.80;;
7316;SDS011;3699;51.462;6.696;2023-03-13T09:25:18;10.70;;;3.43;;
7316;SDS011;3699;51.462;6.696;2023-03-13T09:27:45;6.13;;;2.80;;
7316;SDS011;3699;51.462;6.696;2023-03-13T09:30:12;12.97;;;3.10;;
7316;SDS011;3699;51.462;6.696;2023-03-13T09:32:39;5.00;;;2.80;;
7316;SDS011;3699;51.462;6.696;2023-03-13T09:35:06;5.63;;;2.93;;
7316;SDS011;3699;51.462;6.696;2023-03-13T09:37:34;9.77;;;3.40;;
7316;SDS011;3699;51.462;6.696;2023-03-13T09:40:01;5.37;;;2.67;;
7316;SDS011;3699;51.462;6.696;2023-03-13T09:42:31;7.60;;;2.80;;
7316;SDS011;3699;51.462;6.696;2023-03-13T09:45:08;4.00;;;2.83;;
7316;SDS011;3699;51.462;6.696;2023-03-13T09:47:41;4.43;;;2.40;;
7316;SDS011;3699;51.462;6.696;2023-03-13T09:50:12;5.00;;;2.67;;
7316;SDS011;3699;51.462;6.696;2023-03-13T09:52:44;7.47;;;3.37;;
7316;SDS011;3699;51.462;6.696;2023-03-13T09:55:16;4.57;;;2.83;;
7316;SDS011;3699;51.462;6.696;2023-03-13T09:57:48;3.87;;;2.87;;
7316;SDS011;3699;51.462;6.696;2023-03-13T10:00:18;3.93;;;3.07;;
7316;SDS011;3699;51.462;6.696;2023-03-13T10:02:52;3.40;;;2.57;;
7316;SDS011;3699;51.462;6.696;2023-03-13T10:05:22;5.67;;;2.83;;
7316;SDS011;3699;51.462;6.696;2023-03-13T10:07:51;6.60;;;3.00;;
7316;SDS011;3699;51.462;6.696;2023-03-13T10:10:23;8.10;;;3.60;;
7316;SDS011;3699;51.462;6.696;2023-03-13T10:12:55;6.10;;;2.67;;
7316;SDS011;3699;51.462;6.696;2023-03-13T10:15:31;7.70;;;3.03;;
7316;SDS011;3699;51.462;6.696;2023-03-13T10:18:09;3.50;;;2.60;;
7316;SDS011;3699;51.462;6.696;2023-03-13T10:20:40;4.63;;;3.20;;
7316;SDS011;3699;51.462;6.696;2023-03-13T10:23:13;7.03;;;2.50;;
7316;SDS011;3699;51.462;6.696;2023-03-13T10:25:44;5.57;;;2.93;;
7316;SDS011;3699;51.462;6.696;2023-03-13T10:28:11;4.23;;;2.50;;
7316;SDS011;3699;51.462;6.696;2023-03-13T10:30:39;3.03;;;2.30;;
7316;SDS011;3699;51.462;6.696;2023-03-13T10:33:18;4.20;;;2.40;;
7316;SDS011;3699;51.462;6.696;2023-03-13T10:36:04;3.37;;;2.43;;
7316;SDS011;3699;51.462;6.696;2023-03-13T10:38:43;3.53;;;2.23;;
7316;SDS011;3699;51.462;6.696;2023-03-13T10:41:25;4.40;;;2.40;;
7316;SDS011;3699;51.462;6.696;2023-03-13T10:43:57;3.53;;;2.30;;
7316;SDS011;3699;51.462;6.696;2023-03-13T10:46:26;3.77;;;2.30;;
7316;SDS011;3699;51.462;6.696;2023-03-13T10:48:54;2.70;;;2.10;;
7316;SDS011;3699;51.462;6.696;2023-03-13T10:51:23;6.57;;;2.40;;
7316;SDS011;3699;51.462;6.696;2023-03-13T10:53:56;4.40;;;2.20;;
7316;SDS011;3699;51.462;6.696;2023-03-13T10:56:24;3.37;;;2.17;;
7316;SDS011;3699;51.462;6.696;2023-03-13T10:58:55;3.50;;;2.37;;
7316;SDS011;3699;51.462;6.696;2023-03-13T11:01:23;2.43;;;1.90;;
7316;SDS011;3699;51.462;6.696;2023-03-13T11:03:53;6.37;;;2.30;;
7316;SDS011;3699;51.462;6.696;2023-03-13T11:06:25;4.07;;;2.00;;
7316;SDS011;3699;51.462;6.696;2023-03-13T11:09:02;2.13;;;1.97;;
7316;SDS011;3699;51.462;6.696;2023-03-13T11:11:42;3.80;;;2.37;;
7316;SDS011;3699;51.462;6.696;2023-03-13T11:14:12;2.87;;;1.90;;
7316;SDS011;3699;51.462;6.696;2023-03-13T11:16:44;3.73;;;2.40;;
7316;SDS011;3699;51.462;6.696;2023-03-13T11:22:13;3.73;;;2.30;;
7316;SDS011;3699;51.462;6.696;2023-03-13T11:24:59;2.10;;;1.90;;
7316;SDS011;3699;51.462;6.696;2023-03-13T11:27:35;3.03;;;1.80;;
7316;SDS011;3699;51.462;6.696;2023-03-13T11:30:14;1.97;;;1.80;;
7316;SDS011;3699;51.462;6.696;2023-03-13T11:32:49;3.43;;;1.73;;
7316;SDS011;3699;51.462;6.696;2023-03-13T11:35:20;3.27;;;2.00;;
7316;SDS011;3699;51.462;6.696;2023-03-13T11:38:00;4.57;;;1.87;;
7316;SDS011;3699;51.462;6.696;2023-03-13T11:40:33;4.67;;;1.90;;
7316;SDS011;3699;51.462;6.696;2023-03-13T11:43:13;4.23;;;1.80;;
7316;SDS011;3699;51.462;6.696;2023-03-13T11:45:54;4.40;;;2.37;;
7316;SDS011;3699;51.462;6.696;2023-03-13T11:48:39;2.20;;;1.97;;
7316;SDS011;3699;51.462;6.696;2023-03-13T11:51:19;4.00;;;2.17;;
7316;SDS011;3699;51.462;6.696;2023-03-13T11:53:59;2.20;;;2.00;;
7316;SDS011;3699;51.462;6.696;2023-03-13T11:56:39;3.47;;;1.80;;
7316;SDS011;3699;51.462;6.696;2023-03-13T11:59:24;1.73;;;1.50;;
7316;SDS011;3699;51.462;6.696;2023-03-13T12:02:02;2.03;;;1.87;;
7316;SDS011;3699;51.462;6.696;2023-03-13T12:04:38;1.43;;;1.33;;
7316;SDS011;3699;51.462;6.696;2023-03-13T12:07:09;2.13;;;1.33;;
7316;SDS011;3699;51.462;6.696;2023-03-13T12:09:46;2.10;;;1.40;;
7316;SDS011;3699;51.462;6.696;2023-03-13T12:12:19;1.63;;;1.47;;
7316;SDS011;3699;51.462;6.696;2023-03-13T12:14:55;2.30;;;1.50;;
7316;SDS011;3699;51.462;6.696;2023-03-13T12:17:27;2.07;;;1.53;;
7316;SDS011;3699;51.462;6.696;2023-03-13T12:20:00;1.50;;;1.40;;
7316;SDS011;3699;51.462;6.696;2023-03-13T12:22:35;2.50;;;1.40;;
7316;SDS011;3699;51.462;6.696;2023-03-13T12:25:05;2.03;;;1.60;;
7316;SDS011;3699;51.462;6.696;2023-03-13T12:27:41;2.97;;;1.60;;
7316;SDS011;3699;51.462;6.696;2023-03-13T12:30:17;1.23;;;1.20;;
7316;SDS011;3699;51.462;6.696;2023-03-13T12:32:51;2.73;;;1.70;;
7316;SDS011;3699;51.462;6.696;2023-03-13T12:35:27;1.73;;;1.40;;
7316;SDS011;3699;51.462;6.696;2023-03-13T12:37:59;2.13;;;1.50;;
7316;SDS011;3699;51.462;6.696;2023-03-13T12:40:31;2.80;;;1.50;;
7316;SDS011;3699;51.462;6.696;2023-03-13T12:43:04;3.13;;;1.50;;
7316;SDS011;3699;51.462;6.696;2023-03-13T12:45:37;1.60;;;1.47;;
7316;SDS011;3699;51.462;6.696;2023-03-13T12:48:19;2.83;;;1.50;;
7316;SDS011;3699;51.462;6.696;2023-03-13T12:51:05;3.93;;;1.57;;
7316;SDS011;3699;51.462;6.696;2023-03-13T12:54:02;1.80;;;1.67;;
7316;SDS011;3699;51.462;6.696;2023-03-13T12:56:40;4.30;;;1.70;;
7316;SDS011;3699;51.462;6.696;2023-03-13T12:59:18;5.57;;;1.43;;
7316;SDS011;3699;51.462;6.696;2023-03-13T13:01:49;2.73;;;1.80;;
7316;SDS011;3699;51.462;6.696;2023-03-13T13:04:19;1.60;;;1.50;;
7316;SDS011;3699;51.462;6.696;2023-03-13T13:06:52;3.07;;;1.70;;
7316;SDS011;3699;51.462;6.696;2023-03-13T13:09:26;1.27;;;1.23;;
7316;SDS011;3699;51.462;6.696;2023-03-13T13:11:59;1.63;;;1.40;;
7316;SDS011;3699;51.462;6.696;2023-03-13T13:17:33;1.50;;;1.40;;
7316;SDS011;3699;51.462;6.696;2023-03-13T13:32:31;2.00;;;1.30;;
7316;SDS011;3699;51.462;6.696;2023-03-13T13:35:04;1.43;;;1.33;;
7316;SDS011;3699;51.462;6.696;2023-03-13T13:37:43;1.20;;;1.20;;
7316;SDS011;3699;51.462;6.696;2023-03-13T13:40:21;2.17;;;1.40;;
7316;SDS011;3699;51.462;6.696;2023-03-13T13:42:52;1.40;;;1.30;;
7316;SDS011;3699;51.462;6.696;2023-03-13T13:45:21;1.63;;;1.43;;
7316;SDS011;3699;51.462;6.696;2023-03-13T13:48:22;1.47;;;1.10;;
7316;SDS011;3699;51.462;6.696;2023-03-13T13:53:54;2.93;;;1.60;;
7316;SDS011;3699;51.462;6.696;2023-03-13T13:56:27;1.40;;;1.30;;
7316;SDS011;3699;51.462;6.696;2023-03-13T14:02:11;1.93;;;1.50;;
7316;SDS011;3699;51.462;6.696;2023-03-13T14:04:48;2.70;;;1.40;;
7316;SDS011;3699;51.462;6.696;2023-03-13T14:07:23;4.23;;;2.10;;
7316;SDS011;3699;51.462;6.696;2023-03-13T14:09:57;4.87;;;2.00;;
7316;SDS011;3699;51.462;6.696;2023-03-13T14:12:29;1.50;;;1.40;;
7316;SDS011;3699;51.462;6.696;2023-03-13T14:15:08;1.30;;;1.20;;
7316;SDS011;3699;51.462;6.696;2023-03-13T14:17:41;1.80;;;1.50;;
7316;SDS011;3699;51.462;6.696;2023-03-13T14:20:16;2.17;;;1.50;;
7316;SDS011;3699;51.462;6.696;2023-03-13T14:22:52;4.50;;;1.50;;
7316;SDS011;3699;51.462;6.696;2023-03-13T14:25:20;1.40;;;1.30;;
7316;SDS011;3699;51.462;6.696;2023-03-13T14:27:48;1.57;;;1.40;;
7316;SDS011;3699;51.462;6.696;2023-03-13T14:30:17;2.93;;;1.50;;
7316;SDS011;3699;51.462;6.696;2023-03-13T14:32:45;1.60;;;1.50;;
7316;SDS011;3699;51.462;6.696;2023-03-13T14:35:13;1.50;;;1.40;;
7316;SDS011;3699;51.462;6.696;2023-03-13T14:37:43;2.60;;;1.50;;
7316;SDS011;3699;51.462;6.696;2023-03-13T14:40:18;3.10;;;1.63;;
7316;SDS011;3699;51.462;6.696;2023-03-13T14:42:52;1.87;;;1.70;;
7316;SDS011;3699;51.462;6.696;2023-03-13T14:45:21;2.33;;;1.90;;
7316;SDS011;3699;51.462;6.696;2023-03-13T14:47:51;5.77;;;1.70;;
7316;SDS011;3699;51.462;6.696;2023-03-13T14:50:20;2.20;;;1.60;;
7316;SDS011;3699;51.462;6.696;2023-03-13T14:52:51;2.17;;;1.70;;
7316;SDS011;3699;51.462;6.696;2023-03-13T14:55:26;2.47;;;1.80;;
7316;SDS011;3699;51.462;6.696;2023-03-13T14:57:55;2.23;;;1.60;;
7316;SDS011;3699;51.462;6.696;2023-03-13T15:00:31;5.43;;;3.03;;
7316;SDS011;3699;51.462;6.696;2023-03-13T15:06:06;1.50;;;1.40;;
7316;SDS011;3699;51.462;6.696;2023-03-13T15:08:45;3.70;;;1.77;;
7316;SDS011;3699;51.462;6.696;2023-03-13T15:11:17;2.33;;;1.60;;
7316;SDS011;3699;51.462;6.696;2023-03-13T15:13:46;3.53;;;1.50;;
7316;SDS011;3699;51.462;6.696;2023-03-13T15:16:13;2.37;;;1.60;;
7316;SDS011;3699;51.462;6.696;2023-03-13T15:18:44;2.60;;;1.57;;
7316;SDS011;3699;51.462;6.696;2023-03-13T15:21:22;4.03;;;1.90;;
7316;SDS011;3699;51.462;6.696;2023-03-13T15:23:53;3.33;;;1.70;;
7316;SDS011;3699;51.462;6.696;2023-03-13T15:26:21;2.83;;;1.63;;
7316;SDS011;3699;51.462;6.696;2023-03-13T15:28:48;2.10;;;1.80;;
7316;SDS011;3699;51.462;6.696;2023-03-13T15:31:16;2.40;;;1.57;;
7316;SDS011;3699;51.462;6.696;2023-03-13T15:33:44;2.63;;;1.53;;
7316;SDS011;3699;51.462;6.696;2023-03-13T15:36:11;2.63;;;1.50;;
7316;SDS011;3699;51.462;6.696;2023-03-13T15:38:38;1.87;;;1.60;;
7316;SDS011;3699;51.462;6.696;2023-03-13T15:41:06;2.97;;;1.63;;
7316;SDS011;3699;51.462;6.696;2023-03-13T15:43:33;3.30;;;1.80;;
7316;SDS011;3699;51.462;6.696;2023-03-13T15:46:01;6.00;;;3.17;;
7316;SDS011;3699;51.462;6.696;2023-03-13T15:48:28;2.50;;;1.93;;
7316;SDS011;3699;51.462;6.696;2023-03-13T15:50:57;3.70;;;1.60;;
7316;SDS011;3699;51.462;6.696;2023-03-13T15:53:26;2.90;;;2.07;;
7316;SDS011;3699;51.462;6.696;2023-03-13T15:55:54;2.30;;;1.50;;